sensor_id;sensor_type;location;lat;lon;timestamp;temperature;humidity
14749;DHT22;7466;53.574;9.976;2022-09-09T00:01:42;13.90;99.90
14749;DHT22;7466;53.574;9.976;2022-09-09T00:04:13;13.80;99.90
14749;DHT22;7466;53.574;9.976;2022-09-09T00:06:46;13.90;99.90
14749;DHT22;7466;53.574;9.976;2022-09-09T00:09:18;13.80;99.90
14749;DHT22;7466;53.574;9.976;2022-09-09T00:11:49;13.80;99.90
14749;DHT22;7466;53.574;9.976;2022-09-09T00:14:21;13.80;99.90
14749;DHT22;7466;53.574;9.976;2022-09-09T00:16:54;13.80;99.90
14749;DHT22;7466;53.574;9.976;2022-09-09T00:19:24;13.80;99.90
14749;DHT22;7466;53.574;9.976;2022-09-09T00:22:04;13.80;99.90
14749;DHT22;7466;53.574;9.976;2022-09-09T00:24:40;13.90;99.90
14749;DHT22;7466;53.574;9.976;2022-09-09T00:27:12;13.90;99.90
14749;DHT22;7466;53.574;9.976;2022-09-09T00:29:43;13.90;99.90
14749;DHT22;7466;53.574;9.976;2022-09-09T00:32:13;13.90;99.90
14749;DHT22;7466;53.574;9.976;2022-09-09T00:34:47;13.90;99.90
14749;DHT22;7466;53.574;9.976;2022-09-09T00:37:15;14.00;99.90
14749;DHT22;7466;53.574;9.976;2022-09-09T00:39:44;14.10;99.90
14749;DHT22;7466;53.574;9.976;2022-09-09T00:42:15;14.10;99.90
14749;DHT22;7466;53.574;9.976;2022-09-09T00:44:52;14.20;99.90
14749;DHT22;7466;53.574;9.976;2022-09-09T00:47:43;14.20;99.90
14749;DHT22;7466;53.574;9.976;2022-09-09T00:50:30;14.30;99.90
14749;DHT22;7466;53.574;9.976;2022-09-09T00:53:09;14.30;99.90
14749;DHT22;7466;53.574;9.976;2022-09-09T00:55:41;14.40;99.90
14749;DHT22;7466;53.574;9.976;2022-09-09T00:58:12;14.40;99.90
14749;DHT22;7466;53.574;9.976;2022-09-09T01:00:43;14.40;99.90
14749;DHT22;7466;53.574;9.976;2022-09-09T01:03:19;14.40;99.90
14749;DHT22;7466;53.574;9.976;2022-09-09T01:05:58;14.50;99.90
14749;DHT22;7466;53.574;9.976;2022-09-09T01:11:31;14.40;99.90
14749;DHT22;7466;53.574;9.976;2022-09-09T01:14:05;14.40;99.90
14749;DHT22;7466;53.574;9.976;2022-09-09T01:16:36;14.40;99.90
14749;DHT22;7466;53.574;9.976;2022-09-09T01:19:04;14.40;99.90
14749;DHT22;7466;53.574;9.976;2022-09-09T01:21:41;14.30;99.90
14749;DHT22;7466;53.574;9.976;2022-09-09T01:24:20;14.30;99.90
14749;DHT22;7466;53.574;9.976;2022-09-09T01:26:52;14.30;99.90
14749;DHT22;7466;53.574;9.976;2022-09-09T01:29:21;14.20;99.90
14749;DHT22;7466;53.574;9.976;2022-09-09T01:31:56;14.20;99.90
14749;DHT22;7466;53.574;9.976;2022-09-09T01:34:25;14.20;99.90
14749;DHT22;7466;53.574;9.976;2022-09-09T01:36:57;14.20;99.90
14749;DHT22;7466;53.574;9.976;2022-09-09T01:39:24;14.20;99.90
14749;DHT22;7466;53.574;9.976;2022-09-09T01:41:53;14.10;99.90
14749;DHT22;7466;53.574;9.976;2022-09-09T01:44:22;14.10;99.90
14749;DHT22;7466;53.574;9.976;2022-09-09T01:46:49;14.10;99.90
14749;DHT22;7466;53.574;9.976;2022-09-09T01:49:16;14.10;99.90
14749;DHT22;7466;53.574;9.976;2022-09-09T01:51:44;14.00;99.90
14749;DHT22;7466;53.574;9.976;2022-09-09T01:54:12;14.00;99.90
14749;DHT22;7466;53.574;9.976;2022-09-09T01:56:47;14.00;99.90
14749;DHT22;7466;53.574;9.976;2022-09-09T01:59:28;14.00;99.90
14749;DHT22;7466;53.574;9.976;2022-09-09T02:02:08;14.00;99.90
14749;DHT22;7466;53.574;9.976;2022-09-09T02:04:38;13.90;99.90
14749;DHT22;7466;53.574;9.976;2022-09-09T02:07:15;13.90;99.90
14749;DHT22;7466;53.574;9.976;2022-09-09T02:09:49;13.90;99.90
14749;DHT22;7466;53.574;9.976;2022-09-09T02:12:20;13.90;99.90
14749;DHT22;7466;53.574;9.976;2022-09-09T02:14:56;13.80;99.90
14749;DHT22;7466;53.574;9.976;2022-09-09T02:17:27;13.80;99.90
14749;DHT22;7466;53.574;9.976;2022-09-09T02:19:58;13.80;99.90
14749;DHT22;7466;53.574;9.976;2022-09-09T02:22:27;13.80;99.90
14749;DHT22;7466;53.574;9.976;2022-09-09T02:24:58;13.70;99.90
14749;DHT22;7466;53.574;9.976;2022-09-09T02:27:27;13.70;99.90
14749;DHT22;7466;53.574;9.976;2022-09-09T02:29:57;13.70;99.90
14749;DHT22;7466;53.574;9.976;2022-09-09T02:32:25;13.70;99.90
14749;DHT22;7466;53.574;9.976;2022-09-09T02:34:59;13.70;99.90
14749;DHT22;7466;53.574;9.976;2022-09-09T02:37:29;13.70;99.90
14749;DHT22;7466;53.574;9.976;2022-09-09T02:39:58;13.60;99.90
14749;DHT22;7466;53.574;9.976;2022-09-09T02:42:25;13.60;99.90
14749;DHT22;7466;53.574;9.976;2022-09-09T02:44:52;13.60;99.90
14749;DHT22;7466;53.574;9.976;2022-09-09T02:47:26;13.70;99.90
14749;DHT22;7466;53.574;9.976;2022-09-09T02:50:02;13.60;99.90
14749;DHT22;7466;53.574;9.976;2022-09-09T02:52:36;13.60;99.90
14749;DHT22;7466;53.574;9.976;2022-09-09T02:55:12;13.60;99.90
14749;DHT22;7466;53.574;9.976;2022-09-09T02:57:42;13.60;99.90
14749;DHT22;7466;53.574;9.976;2022-09-09T03:00:11;13.60;99.90
14749;DHT22;7466;53.574;9.976;2022-09-09T03:02:40;13.60;99.90
14749;DHT22;7466;53.574;9.976;2022-09-09T03:05:08;13.60;99.90
14749;DHT22;7466;53.574;9.976;2022-09-09T03:07:34;13.60;99.90
14749;DHT22;7466;53.574;9.976;2022-09-09T03:10:01;13.60;99.90
14749;DHT22;7466;53.574;9.976;2022-09-09T03:12:28;13.60;99.90
14749;DHT22;7466;53.574;9.976;2022-09-09T03:14:55;13.60;99.90
14749;DHT22;7466;53.574;9.976;2022-09-09T03:17:21;13.60;99.90
14749;DHT22;7466;53.574;9.976;2022-09-09T03:19:50;13.60;99.90
14749;DHT22;7466;53.574;9.976;2022-09-09T03:22:19;13.60;99.90
14749;DHT22;7466;53.574;9.976;2022-09-09T03:24:46;13.60;99.90
14749;DHT22;7466;53.574;9.976;2022-09-09T03:27:13;13.60;99.90
14749;DHT22;7466;53.574;9.976;2022-09-09T03:29:41;13.60;99.90
14749;DHT22;7466;53.574;9.976;2022-09-09T03:32:07;13.50;99.90
14749;DHT22;7466;53.574;9.976;2022-09-09T03:34:36;13.50;99.90
14749;DHT22;7466;53.574;9.976;2022-09-09T03:37:07;13.50;99.90
14749;DHT22;7466;53.574;9.976;2022-09-09T03:39:33;13.50;99.90
14749;DHT22;7466;53.574;9.976;2022-09-09T03:42:00;13.50;99.90
14749;DHT22;7466;53.574;9.976;2022-09-09T03:44:29;13.40;99.90
14749;DHT22;7466;53.574;9.976;2022-09-09T03:46:56;13.40;99.90
14749;DHT22;7466;53.574;9.976;2022-09-09T03:49:26;13.40;99.90
14749;DHT22;7466;53.574;9.976;2022-09-09T03:51:54;13.40;99.90
14749;DHT22;7466;53.574;9.976;2022-09-09T03:54:23;13.40;99.90
14749;DHT22;7466;53.574;9.976;2022-09-09T03:56:50;13.40;99.90
14749;DHT22;7466;53.574;9.976;2022-09-09T03:59:17;13.30;99.90
14749;DHT22;7466;53.574;9.976;2022-09-09T04:01:44;13.30;99.90
14749;DHT22;7466;53.574;9.976;2022-09-09T04:04:12;13.30;99.90
14749;DHT22;7466;53.574;9.976;2022-09-09T04:06:39;13.30;99.90
14749;DHT22;7466;53.574;9.976;2022-09-09T04:09:06;13.30;99.90
14749;DHT22;7466;53.574;9.976;2022-09-09T04:11:34;13.30;99.90
14749;DHT22;7466;53.574;9.976;2022-09-09T04:14:02;13.30;99.90
14749;DHT22;7466;53.574;9.976;2022-09-09T04:16:32;13.20;99.90
14749;DHT22;7466;53.574;9.976;2022-09-09T04:18:59;13.20;99.90
14749;DHT22;7466;53.574;9.976;2022-09-09T04:21:26;13.30;99.90
14749;DHT22;7466;53.574;9.976;2022-09-09T04:23:53;13.20;99.90
14749;DHT22;7466;53.574;9.976;2022-09-09T04:26:20;13.20;99.90
14749;DHT22;7466;53.574;9.976;2022-09-09T04:28:48;13.20;99.90
14749;DHT22;7466;53.574;9.976;2022-09-09T04:31:16;13.20;99.90
14749;DHT22;7466;53.574;9.976;2022-09-09T04:33:43;13.20;99.90
14749;DHT22;7466;53.574;9.976;2022-09-09T04:36:11;13.20;99.90
14749;DHT22;7466;53.574;9.976;2022-09-09T04:38:38;13.20;99.90
14749;DHT22;7466;53.574;9.976;2022-09-09T04:41:06;13.30;99.90
14749;DHT22;7466;53.574;9.976;2022-09-09T04:43:33;13.30;99.90
14749;DHT22;7466;53.574;9.976;2022-09-09T04:46:01;13.30;99.90
14749;DHT22;7466;53.574;9.976;2022-09-09T04:48:28;13.40;99.90
14749;DHT22;7466;53.574;9.976;2022-09-09T04:50:57;13.40;99.90
14749;DHT22;7466;53.574;9.976;2022-09-09T04:53:25;13.40;99.90
14749;DHT22;7466;53.574;9.976;2022-09-09T04:55:53;13.40;99.90
14749;DHT22;7466;53.574;9.976;2022-09-09T04:58:27;13.40;99.90
14749;DHT22;7466;53.574;9.976;2022-09-09T05:00:54;13.40;99.90
14749;DHT22;7466;53.574;9.976;2022-09-09T05:03:22;13.40;99.90
14749;DHT22;7466;53.574;9.976;2022-09-09T05:05:49;13.40;99.90
14749;DHT22;7466;53.574;9.976;2022-09-09T05:08:16;13.40;99.90
14749;DHT22;7466;53.574;9.976;2022-09-09T05:10:43;13.40;99.90
14749;DHT22;7466;53.574;9.976;2022-09-09T05:13:11;13.40;99.90
14749;DHT22;7466;53.574;9.976;2022-09-09T05:15:37;13.40;99.90
14749;DHT22;7466;53.574;9.976;2022-09-09T05:18:04;13.40;99.90
14749;DHT22;7466;53.574;9.976;2022-09-09T05:20:32;13.40;99.90
14749;DHT22;7466;53.574;9.976;2022-09-09T05:22:59;13.40;99.90
14749;DHT22;7466;53.574;9.976;2022-09-09T05:25:26;13.40;99.90
14749;DHT22;7466;53.574;9.976;2022-09-09T05:27:53;13.30;99.90
14749;DHT22;7466;53.574;9.976;2022-09-09T05:30:20;13.30;99.90
14749;DHT22;7466;53.574;9.976;2022-09-09T05:32:48;13.30;99.90
14749;DHT22;7466;53.574;9.976;2022-09-09T05:35:15;13.40;99.90
14749;DHT22;7466;53.574;9.976;2022-09-09T05:37:45;13.40;99.90
14749;DHT22;7466;53.574;9.976;2022-09-09T05:40:13;13.40;99.90
14749;DHT22;7466;53.574;9.976;2022-09-09T05:42:40;13.50;99.90
14749;DHT22;7466;53.574;9.976;2022-09-09T05:45:08;13.50;99.90
14749;DHT22;7466;53.574;9.976;2022-09-09T05:47:35;13.50;99.90
14749;DHT22;7466;53.574;9.976;2022-09-09T05:50:03;13.60;99.90
14749;DHT22;7466;53.574;9.976;2022-09-09T05:52:30;13.70;99.90
14749;DHT22;7466;53.574;9.976;2022-09-09T05:54:59;13.70;99.90
14749;DHT22;7466;53.574;9.976;2022-09-09T05:57:26;13.70;99.90
14749;DHT22;7466;53.574;9.976;2022-09-09T05:59:53;13.80;99.90
14749;DHT22;7466;53.574;9.976;2022-09-09T06:02:20;13.90;99.90
14749;DHT22;7466;53.574;9.976;2022-09-09T06:04:46;13.90;99.90
14749;DHT22;7466;53.574;9.976;2022-09-09T06:07:13;14.00;99.90
14749;DHT22;7466;53.574;9.976;2022-09-09T06:09:41;14.10;99.90
14749;DHT22;7466;53.574;9.976;2022-09-09T06:12:09;14.10;99.90
14749;DHT22;7466;53.574;9.976;2022-09-09T06:14:36;14.00;99.90
14749;DHT22;7466;53.574;9.976;2022-09-09T06:17:03;14.00;99.90
14749;DHT22;7466;53.574;9.976;2022-09-09T06:19:30;14.00;99.90
14749;DHT22;7466;53.574;9.976;2022-09-09T06:21:57;14.00;99.90
14749;DHT22;7466;53.574;9.976;2022-09-09T06:24:24;14.00;99.90
14749;DHT22;7466;53.574;9.976;2022-09-09T06:26:51;14.00;99.90
14749;DHT22;7466;53.574;9.976;2022-09-09T06:29:20;14.00;99.90
14749;DHT22;7466;53.574;9.976;2022-09-09T06:31:47;14.00;99.90
14749;DHT22;7466;53.574;9.976;2022-09-09T06:34:14;14.00;99.90
14749;DHT22;7466;53.574;9.976;2022-09-09T06:36:41;14.10;99.90
14749;DHT22;7466;53.574;9.976;2022-09-09T06:39:08;14.10;99.90
14749;DHT22;7466;53.574;9.976;2022-09-09T06:41:36;14.20;99.90
14749;DHT22;7466;53.574;9.976;2022-09-09T06:44:03;14.20;99.90
14749;DHT22;7466;53.574;9.976;2022-09-09T06:46:32;14.30;99.90
14749;DHT22;7466;53.574;9.976;2022-09-09T06:48:59;14.40;99.90
14749;DHT22;7466;53.574;9.976;2022-09-09T06:51:27;14.40;99.90
14749;DHT22;7466;53.574;9.976;2022-09-09T06:53:56;14.40;99.90
14749;DHT22;7466;53.574;9.976;2022-09-09T06:56:25;14.60;99.90
14749;DHT22;7466;53.574;9.976;2022-09-09T06:58:54;14.60;99.90
14749;DHT22;7466;53.574;9.976;2022-09-09T07:01:23;14.70;99.90
14749;DHT22;7466;53.574;9.976;2022-09-09T07:03:53;14.80;99.90
14749;DHT22;7466;53.574;9.976;2022-09-09T07:06:21;14.90;99.90
14749;DHT22;7466;53.574;9.976;2022-09-09T07:08:50;15.10;99.90
14749;DHT22;7466;53.574;9.976;2022-09-09T07:11:19;15.30;99.90
14749;DHT22;7466;53.574;9.976;2022-09-09T07:13:46;15.50;99.90
14749;DHT22;7466;53.574;9.976;2022-09-09T07:16:15;15.60;99.90
14749;DHT22;7466;53.574;9.976;2022-09-09T07:18:42;15.60;99.90
14749;DHT22;7466;53.574;9.976;2022-09-09T07:21:11;15.70;99.90
14749;DHT22;7466;53.574;9.976;2022-09-09T07:23:39;15.70;99.90
14749;DHT22;7466;53.574;9.976;2022-09-09T07:26:10;15.80;99.90
14749;DHT22;7466;53.574;9.976;2022-09-09T07:28:38;15.70;99.90
14749;DHT22;7466;53.574;9.976;2022-09-09T07:31:06;15.70;99.90
14749;DHT22;7466;53.574;9.976;2022-09-09T07:33:34;15.80;99.90
14749;DHT22;7466;53.574;9.976;2022-09-09T07:36:06;15.70;99.90
14749;DHT22;7466;53.574;9.976;2022-09-09T07:38:39;16.00;99.90
14749;DHT22;7466;53.574;9.976;2022-09-09T07:41:07;16.20;99.90
14749;DHT22;7466;53.574;9.976;2022-09-09T07:43:37;16.50;99.90
14749;DHT22;7466;53.574;9.976;2022-09-09T07:46:05;16.50;99.90
14749;DHT22;7466;53.574;9.976;2022-09-09T07:48:32;16.60;99.90
14749;DHT22;7466;53.574;9.976;2022-09-09T07:51:07;16.60;99.90
14749;DHT22;7466;53.574;9.976;2022-09-09T07:53:34;16.60;99.90
14749;DHT22;7466;53.574;9.976;2022-09-09T07:56:06;16.60;99.90
14749;DHT22;7466;53.574;9.976;2022-09-09T07:58:35;16.60;99.90
14749;DHT22;7466;53.574;9.976;2022-09-09T08:01:06;16.60;99.90
14749;DHT22;7466;53.574;9.976;2022-09-09T08:03:33;16.60;99.90
14749;DHT22;7466;53.574;9.976;2022-09-09T08:06:01;16.70;99.90
14749;DHT22;7466;53.574;9.976;2022-09-09T08:08:28;16.80;99.90
14749;DHT22;7466;53.574;9.976;2022-09-09T08:11:02;16.80;99.90
14749;DHT22;7466;53.574;9.976;2022-09-09T08:13:31;16.80;99.90
14749;DHT22;7466;53.574;9.976;2022-09-09T08:16:05;17.00;99.90
14749;DHT22;7466;53.574;9.976;2022-09-09T08:18:32;17.10;99.90
14749;DHT22;7466;53.574;9.976;2022-09-09T08:21:05;17.30;99.90
14749;DHT22;7466;53.574;9.976;2022-09-09T08:23:32;17.40;99.90
14749;DHT22;7466;53.574;9.976;2022-09-09T08:26:03;17.50;99.90
14749;DHT22;7466;53.574;9.976;2022-09-09T08:28:32;17.60;99.90
14749;DHT22;7466;53.574;9.976;2022-09-09T08:31:06;17.60;99.90
14749;DHT22;7466;53.574;9.976;2022-09-09T08:33:33;17.80;99.90
14749;DHT22;7466;53.574;9.976;2022-09-09T08:36:00;17.80;99.90
14749;DHT22;7466;53.574;9.976;2022-09-09T08:38:26;17.80;99.90
14749;DHT22;7466;53.574;9.976;2022-09-09T08:40:56;17.80;99.90
14749;DHT22;7466;53.574;9.976;2022-09-09T08:43:29;17.70;99.90
14749;DHT22;7466;53.574;9.976;2022-09-09T08:46:04;17.70;99.90
14749;DHT22;7466;53.574;9.976;2022-09-09T08:48:47;17.70;99.90
14749;DHT22;7466;53.574;9.976;2022-09-09T08:51:18;17.70;99.90
14749;DHT22;7466;53.574;9.976;2022-09-09T08:53:48;17.80;99.90
14749;DHT22;7466;53.574;9.976;2022-09-09T08:56:18;17.90;99.90
14749;DHT22;7466;53.574;9.976;2022-09-09T08:58:49;17.90;99.90
14749;DHT22;7466;53.574;9.976;2022-09-09T09:01:38;18.10;99.90
14749;DHT22;7466;53.574;9.976;2022-09-09T09:04:19;18.00;99.90
14749;DHT22;7466;53.574;9.976;2022-09-09T09:06:54;18.10;99.90
14749;DHT22;7466;53.574;9.976;2022-09-09T09:09:35;18.00;99.90
14749;DHT22;7466;53.574;9.976;2022-09-09T09:12:15;18.10;99.90
14749;DHT22;7466;53.574;9.976;2022-09-09T09:14:43;18.20;99.90
14749;DHT22;7466;53.574;9.976;2022-09-09T09:17:14;18.40;99.90
14749;DHT22;7466;53.574;9.976;2022-09-09T09:19:42;18.40;99.90
14749;DHT22;7466;53.574;9.976;2022-09-09T09:22:16;18.70;99.90
14749;DHT22;7466;53.574;9.976;2022-09-09T09:24:51;18.60;99.90
14749;DHT22;7466;53.574;9.976;2022-09-09T09:27:25;18.80;99.90
14749;DHT22;7466;53.574;9.976;2022-09-09T09:29:55;19.10;99.90
14749;DHT22;7466;53.574;9.976;2022-09-09T09:32:27;19.40;99.90
14749;DHT22;7466;53.574;9.976;2022-09-09T09:34:57;19.60;99.90
14749;DHT22;7466;53.574;9.976;2022-09-09T09:37:29;19.60;99.90
14749;DHT22;7466;53.574;9.976;2022-09-09T09:40:07;19.70;99.90
14749;DHT22;7466;53.574;9.976;2022-09-09T09:42:34;19.60;1.00
14749;DHT22;7466;53.574;9.976;2022-09-09T09:45:08;19.20;80.90
14749;DHT22;7466;53.574;9.976;2022-09-09T09:47:37;19.20;1.00
14749;DHT22;7466;53.574;9.976;2022-09-09T09:50:16;19.30;1.00
14749;DHT22;7466;53.574;9.976;2022-09-09T09:52:53;19.30;1.00
14749;DHT22;7466;53.574;9.976;2022-09-09T09:55:21;19.30;1.00
14749;DHT22;7466;53.574;9.976;2022-09-09T09:57:49;19.60;1.00
14749;DHT22;7466;53.574;9.976;2022-09-09T10:00:19;20.00;1.00
14749;DHT22;7466;53.574;9.976;2022-09-09T10:02:50;20.70;1.00
14749;DHT22;7466;53.574;9.976;2022-09-09T10:05:21;20.70;1.00
14749;DHT22;7466;53.574;9.976;2022-09-09T10:08:00;21.20;92.70
14749;DHT22;7466;53.574;9.976;2022-09-09T10:10:37;21.20;25.80
14749;DHT22;7466;53.574;9.976;2022-09-09T10:13:13;21.50;1.00
14749;DHT22;7466;53.574;9.976;2022-09-09T10:15:47;21.60;1.00
14749;DHT22;7466;53.574;9.976;2022-09-09T10:18:36;21.90;1.00
14749;DHT22;7466;53.574;9.976;2022-09-09T10:21:13;22.10;1.00
14749;DHT22;7466;53.574;9.976;2022-09-09T10:23:57;22.70;28.20
14749;DHT22;7466;53.574;9.976;2022-09-09T10:26:36;22.40;47.70
14749;DHT22;7466;53.574;9.976;2022-09-09T10:29:21;21.70;28.60
14749;DHT22;7466;53.574;9.976;2022-09-09T10:31:57;21.80;33.60
14749;DHT22;7466;53.574;9.976;2022-09-09T10:34:41;21.90;18.10
14749;DHT22;7466;53.574;9.976;2022-09-09T10:37:23;21.60;1.00
14749;DHT22;7466;53.574;9.976;2022-09-09T10:39:56;21.40;1.00
14749;DHT22;7466;53.574;9.976;2022-09-09T10:42:29;21.40;1.00
14749;DHT22;7466;53.574;9.976;2022-09-09T10:45:07;21.80;1.00
14749;DHT22;7466;53.574;9.976;2022-09-09T10:48:04;21.80;1.00
14749;DHT22;7466;53.574;9.976;2022-09-09T10:50:48;22.10;1.00
14749;DHT22;7466;53.574;9.976;2022-09-09T10:53:26;22.10;1.00
14749;DHT22;7466;53.574;9.976;2022-09-09T10:56:04;21.90;1.00
14749;DHT22;7466;53.574;9.976;2022-09-09T10:58:37;22.10;1.00
14749;DHT22;7466;53.574;9.976;2022-09-09T11:01:12;22.40;1.00
14749;DHT22;7466;53.574;9.976;2022-09-09T11:03:43;22.20;1.00
14749;DHT22;7466;53.574;9.976;2022-09-09T11:06:18;21.70;1.00
14749;DHT22;7466;53.574;9.976;2022-09-09T11:08:45;21.70;1.00
14749;DHT22;7466;53.574;9.976;2022-09-09T11:11:18;21.70;1.00
14749;DHT22;7466;53.574;9.976;2022-09-09T11:13:49;21.60;1.00
14749;DHT22;7466;53.574;9.976;2022-09-09T11:16:24;21.30;1.00
14749;DHT22;7466;53.574;9.976;2022-09-09T11:18:57;21.40;1.00
14749;DHT22;7466;53.574;9.976;2022-09-09T11:21:29;22.00;1.00
14749;DHT22;7466;53.574;9.976;2022-09-09T11:23:59;22.50;1.00
14749;DHT22;7466;53.574;9.976;2022-09-09T11:26:33;23.00;1.00
14749;DHT22;7466;53.574;9.976;2022-09-09T11:29:22;23.50;1.00
14749;DHT22;7466;53.574;9.976;2022-09-09T11:32:01;24.00;1.00
14749;DHT22;7466;53.574;9.976;2022-09-09T11:34:39;24.30;1.00
14749;DHT22;7466;53.574;9.976;2022-09-09T11:37:43;24.30;1.00
14749;DHT22;7466;53.574;9.976;2022-09-09T11:40:18;24.30;1.00
14749;DHT22;7466;53.574;9.976;2022-09-09T11:42:46;23.90;1.00
14749;DHT22;7466;53.574;9.976;2022-09-09T11:45:23;23.40;1.00
14749;DHT22;7466;53.574;9.976;2022-09-09T11:47:52;23.30;1.00
14749;DHT22;7466;53.574;9.976;2022-09-09T11:50:29;22.60;1.00
14749;DHT22;7466;53.574;9.976;2022-09-09T11:53:20;22.40;1.00
14749;DHT22;7466;53.574;9.976;2022-09-09T11:55:48;22.00;1.00
14749;DHT22;7466;53.574;9.976;2022-09-09T11:58:16;21.80;1.00
14749;DHT22;7466;53.574;9.976;2022-09-09T12:00:44;21.30;1.00
14749;DHT22;7466;53.574;9.976;2022-09-09T12:03:39;21.10;1.00
14749;DHT22;7466;53.574;9.976;2022-09-09T12:06:13;21.10;1.00
14749;DHT22;7466;53.574;9.976;2022-09-09T12:08:45;21.10;1.00
14749;DHT22;7466;53.574;9.976;2022-09-09T12:11:24;21.10;1.00
14749;DHT22;7466;53.574;9.976;2022-09-09T12:13:55;20.90;1.00
14749;DHT22;7466;53.574;9.976;2022-09-09T12:16:31;20.70;1.00
14749;DHT22;7466;53.574;9.976;2022-09-09T12:19:14;20.50;1.00
14749;DHT22;7466;53.574;9.976;2022-09-09T12:21:49;20.50;1.00
14749;DHT22;7466;53.574;9.976;2022-09-09T12:24:24;20.60;1.00
14749;DHT22;7466;53.574;9.976;2022-09-09T12:26:57;20.60;1.00
14749;DHT22;7466;53.574;9.976;2022-09-09T12:29:31;21.50;1.00
14749;DHT22;7466;53.574;9.976;2022-09-09T12:32:06;22.00;1.00
14749;DHT22;7466;53.574;9.976;2022-09-09T12:34:38;22.50;69.30
14749;DHT22;7466;53.574;9.976;2022-09-09T12:37:18;22.70;45.00
14749;DHT22;7466;53.574;9.976;2022-09-09T12:39:54;22.70;39.60
14749;DHT22;7466;53.574;9.976;2022-09-09T12:42:22;23.10;20.40
14749;DHT22;7466;53.574;9.976;2022-09-09T12:44:53;23.00;33.10
14749;DHT22;7466;53.574;9.976;2022-09-09T12:47:23;22.70;16.60
14749;DHT22;7466;53.574;9.976;2022-09-09T12:49:51;22.00;1.00
14749;DHT22;7466;53.574;9.976;2022-09-09T12:52:23;21.50;1.00
14749;DHT22;7466;53.574;9.976;2022-09-09T12:54:52;21.10;1.00
14749;DHT22;7466;53.574;9.976;2022-09-09T12:57:20;20.90;1.00
14749;DHT22;7466;53.574;9.976;2022-09-09T12:59:48;20.80;1.00
14749;DHT22;7466;53.574;9.976;2022-09-09T13:02:20;20.60;1.00
14749;DHT22;7466;53.574;9.976;2022-09-09T13:04:48;20.30;1.00
14749;DHT22;7466;53.574;9.976;2022-09-09T13:07:17;20.10;1.00
14749;DHT22;7466;53.574;9.976;2022-09-09T13:09:46;20.00;1.00
14749;DHT22;7466;53.574;9.976;2022-09-09T13:12:18;20.00;1.00
14749;DHT22;7466;53.574;9.976;2022-09-09T13:14:47;19.90;1.00
14749;DHT22;7466;53.574;9.976;2022-09-09T13:17:20;19.70;17.20
14749;DHT22;7466;53.574;9.976;2022-09-09T13:19:48;19.70;29.00
14749;DHT22;7466;53.574;9.976;2022-09-09T13:22:26;19.70;40.30
14749;DHT22;7466;53.574;9.976;2022-09-09T13:25:02;19.60;57.00
14749;DHT22;7466;53.574;9.976;2022-09-09T13:27:32;19.50;90.10
14749;DHT22;7466;53.574;9.976;2022-09-09T13:30:00;19.40;99.90
14749;DHT22;7466;53.574;9.976;2022-09-09T13:32:28;19.00;99.90
14749;DHT22;7466;53.574;9.976;2022-09-09T13:34:57;18.50;99.90
14749;DHT22;7466;53.574;9.976;2022-09-09T13:37:29;18.10;99.90
14749;DHT22;7466;53.574;9.976;2022-09-09T13:39:57;17.90;99.90
14749;DHT22;7466;53.574;9.976;2022-09-09T13:42:26;17.60;99.90
14749;DHT22;7466;53.574;9.976;2022-09-09T13:44:56;17.30;99.90
14749;DHT22;7466;53.574;9.976;2022-09-09T13:47:28;17.20;99.90
14749;DHT22;7466;53.574;9.976;2022-09-09T13:49:57;17.10;99.90
14749;DHT22;7466;53.574;9.976;2022-09-09T13:52:24;17.00;99.90
14749;DHT22;7466;53.574;9.976;2022-09-09T13:54:53;17.00;99.90
14749;DHT22;7466;53.574;9.976;2022-09-09T13:57:22;17.10;99.90
14749;DHT22;7466;53.574;9.976;2022-09-09T13:59:51;17.00;99.90
14749;DHT22;7466;53.574;9.976;2022-09-09T14:02:21;17.10;99.90
14749;DHT22;7466;53.574;9.976;2022-09-09T14:04:48;17.10;99.90
14749;DHT22;7466;53.574;9.976;2022-09-09T14:07:18;17.10;99.90
14749;DHT22;7466;53.574;9.976;2022-09-09T14:09:45;17.10;99.90
14749;DHT22;7466;53.574;9.976;2022-09-09T14:12:15;17.10;99.90
14749;DHT22;7466;53.574;9.976;2022-09-09T14:14:43;17.10;99.90
14749;DHT22;7466;53.574;9.976;2022-09-09T14:17:10;17.10;99.90
14749;DHT22;7466;53.574;9.976;2022-09-09T14:19:39;17.10;99.90
14749;DHT22;7466;53.574;9.976;2022-09-09T14:22:06;17.10;99.90
14749;DHT22;7466;53.574;9.976;2022-09-09T14:24:32;17.20;99.90
14749;DHT22;7466;53.574;9.976;2022-09-09T14:26:59;17.10;99.90
14749;DHT22;7466;53.574;9.976;2022-09-09T14:29:26;17.10;99.90
14749;DHT22;7466;53.574;9.976;2022-09-09T14:31:53;17.10;99.90
14749;DHT22;7466;53.574;9.976;2022-09-09T14:34:20;17.10;99.90
14749;DHT22;7466;53.574;9.976;2022-09-09T14:36:48;17.10;99.90
14749;DHT22;7466;53.574;9.976;2022-09-09T14:39:15;17.00;99.90
14749;DHT22;7466;53.574;9.976;2022-09-09T14:41:42;17.00;99.90
14749;DHT22;7466;53.574;9.976;2022-09-09T14:44:09;16.90;99.90
14749;DHT22;7466;53.574;9.976;2022-09-09T14:46:36;16.80;99.90
14749;DHT22;7466;53.574;9.976;2022-09-09T14:49:03;16.70;99.90
14749;DHT22;7466;53.574;9.976;2022-09-09T14:51:30;16.70;99.90
14749;DHT22;7466;53.574;9.976;2022-09-09T14:53:59;16.70;99.90
14749;DHT22;7466;53.574;9.976;2022-09-09T14:56:29;16.70;99.90
14749;DHT22;7466;53.574;9.976;2022-09-09T14:58:58;16.70;99.90
14749;DHT22;7466;53.574;9.976;2022-09-09T15:01:27;16.70;99.90
14749;DHT22;7466;53.574;9.976;2022-09-09T15:03:56;16.60;99.90
14749;DHT22;7466;53.574;9.976;2022-09-09T15:06:24;16.60;99.90
14749;DHT22;7466;53.574;9.976;2022-09-09T15:08:52;16.60;99.90
14749;DHT22;7466;53.574;9.976;2022-09-09T15:11:21;16.50;99.90
14749;DHT22;7466;53.574;9.976;2022-09-09T15:13:51;16.50;99.90
14749;DHT22;7466;53.574;9.976;2022-09-09T15:16:19;16.40;99.90
14749;DHT22;7466;53.574;9.976;2022-09-09T15:18:50;16.40;99.90
14749;DHT22;7466;53.574;9.976;2022-09-09T15:21:20;16.50;99.90
14749;DHT22;7466;53.574;9.976;2022-09-09T15:23:48;16.50;99.90
14749;DHT22;7466;53.574;9.976;2022-09-09T15:26:16;16.50;99.90
14749;DHT22;7466;53.574;9.976;2022-09-09T15:28:45;16.50;99.90
14749;DHT22;7466;53.574;9.976;2022-09-09T15:31:14;16.60;99.90
14749;DHT22;7466;53.574;9.976;2022-09-09T15:33:47;16.60;99.90
14749;DHT22;7466;53.574;9.976;2022-09-09T15:36:15;16.70;99.90
14749;DHT22;7466;53.574;9.976;2022-09-09T15:38:42;16.80;99.90
14749;DHT22;7466;53.574;9.976;2022-09-09T15:41:09;16.90;99.90
14749;DHT22;7466;53.574;9.976;2022-09-09T15:43:36;17.00;99.90
14749;DHT22;7466;53.574;9.976;2022-09-09T15:46:21;17.00;99.90
14749;DHT22;7466;53.574;9.976;2022-09-09T15:48:50;17.10;99.90
14749;DHT22;7466;53.574;9.976;2022-09-09T15:51:17;17.10;99.90
14749;DHT22;7466;53.574;9.976;2022-09-09T15:53:44;17.00;99.90
14749;DHT22;7466;53.574;9.976;2022-09-09T15:56:11;17.00;99.90
14749;DHT22;7466;53.574;9.976;2022-09-09T15:58:38;17.00;99.90
14749;DHT22;7466;53.574;9.976;2022-09-09T16:01:08;16.90;99.90
14749;DHT22;7466;53.574;9.976;2022-09-09T16:03:36;17.00;99.90
14749;DHT22;7466;53.574;9.976;2022-09-09T16:06:04;17.00;99.90
14749;DHT22;7466;53.574;9.976;2022-09-09T16:08:32;17.10;99.90
14749;DHT22;7466;53.574;9.976;2022-09-09T16:11:05;17.10;99.90
14749;DHT22;7466;53.574;9.976;2022-09-09T16:13:35;17.20;99.90
14749;DHT22;7466;53.574;9.976;2022-09-09T16:16:02;17.40;99.90